Time;durP1;ratioP1;P1;durP2;ratioP2;P2;SDS_P1;SDS_P2;PMS_P1;PMS_P2;Temp;Humidity;BMP_temperature;BMP_pressure;BME280_temperature;BME280_humidity;BME280_pressure;Samples;Min_cycle;Max_cycle;Signal;HPM_P1;HPM_P2
2024/04/02 00:00:09;;;;;;;10.48;6.70;;;;;;;;;;5083343;28;20188;-72
2024/04/02 00:02:34;;;;;;;10.02;6.75;;;;;;;;;;5084436;28;20213;-72
2024/04/02 00:05:00;;;;;;;7.43;6.63;;;;;;;;;;5081630;28;20196;-73
2024/04/02 00:07:25;;;;;;;9.07;6.43;;;;;;;;;;5076203;28;20188;-73
2024/04/02 00:09:51;;;;;;;8.30;6.13;;;;;;;;;;5088314;28;20245;-73
2024/04/02 00:12:16;;;;;;;7.47;6.05;;;;;;;;;;5084226;28;20196;-73
2024/04/02 00:14:42;;;;;;;8.60;6.35;;;;;;;;;;5090281;28;20598;-72
2024/04/02 00:17:07;;;;;;;14.68;6.38;;;;;;;;;;5084029;28;20197;-72
2024/04/02 00:19:33;;;;;;;9.50;5.97;;;;;;;;;;5081444;28;20212;-73
2024/04/02 00:21:58;;;;;;;9.07;6.00;;;;;;;;;;5089158;28;20192;-73
2024/04/02 00:24:24;;;;;;;7.78;6.10;;;;;;;;;;5083316;28;20688;-73
2024/04/02 00:26:49;;;;;;;9.23;5.57;;;;;;;;;;5085350;28;20195;-73
2024/04/02 00:29:14;;;;;;;7.72;5.65;;;;;;;;;;5073249;28;20177;-71
2024/04/02 00:31:40;;;;;;;7.40;5.22;;;;;;;;;;5058298;28;20558;-74
2024/04/02 00:34:05;;;;;;;11.32;5.60;;;;;;;;;;5077985;28;20602;-72
2024/04/02 00:36:31;;;;;;;6.57;5.45;;;;;;;;;;5079918;28;20259;-73
2024/04/02 00:38:56;;;;;;;10.27;4.68;;;;;;;;;;5070202;28;20229;-72
2024/04/02 00:41:21;;;;;;;7.82;4.88;;;;;;;;;;5072849;28;20245;-72
2024/04/02 00:43:47;;;;;;;6.68;4.63;;;;;;;;;;5078840;28;20531;-73
2024/04/02 00:46:12;;;;;;;14.05;4.57;;;;;;;;;;5086195;28;20678;-72
2024/04/02 00:48:38;;;;;;;7.07;4.78;;;;;;;;;;5094695;28;20649;-73
2024/04/02 00:51:04;;;;;;;5.43;4.25;;;;;;;;;;5088693;28;20200;-72
2024/04/02 00:53:30;;;;;;;6.43;4.20;;;;;;;;;;5088704;28;20241;-72
2024/04/02 00:55:57;;;;;;;7.13;4.15;;;;;;;;;;5084920;28;20238;-73
2024/04/02 00:58:23;;;;;;;8.82;3.95;;;;;;;;;;5080682;28;20222;-72
2024/04/02 01:00:50;;;;;;;5.68;3.50;;;;;;;;;;5072324;28;20336;-72
2024/04/02 01:03:15;;;;;;;4.82;3.60;;;;;;;;;;5085716;28;20740;-73
2024/04/02 01:05:42;;;;;;;4.78;3.53;;;;;;;;;;5089112;28;20250;-73
2024/04/02 01:08:10;;;;;;;6.25;3.78;;;;;;;;;;5082394;28;20616;-73
2024/04/02 01:10:38;;;;;;;4.13;3.35;;;;;;;;;;5087734;28;20254;-73
2024/04/02 01:13:03;;;;;;;6.07;3.47;;;;;;;;;;5086793;28;20188;-73
2024/04/02 01:15:29;;;;;;;6.85;3.60;;;;;;;;;;5081236;28;20191;-73
2024/04/02 01:17:54;;;;;;;4.85;3.28;;;;;;;;;;5087944;28;20553;-73
2024/04/02 01:20:20;;;;;;;6.85;3.80;;;;;;;;;;5089092;28;20200;-73
2024/04/02 01:22:45;;;;;;;7.28;3.50;;;;;;;;;;5087772;28;20208;-73
2024/04/02 01:25:11;;;;;;;6.00;3.30;;;;;;;;;;5072358;28;20269;-73
2024/04/02 01:27:36;;;;;;;8.00;3.28;;;;;;;;;;5084352;28;20311;-72
2024/04/02 01:30:03;;;;;;;7.10;3.38;;;;;;;;;;5082126;28;20188;-72
2024/04/02 01:32:28;;;;;;;5.10;3.15;;;;;;;;;;5064953;28;20669;-73
2024/04/02 01:34:56;;;;;;;5.80;3.05;;;;;;;;;;5074892;28;20263;-73
2024/04/02 01:37:21;;;;;;;4.57;3.00;;;;;;;;;;5087229;28;20184;-72
2024/04/02 01:39:47;;;;;;;4.13;3.00;;;;;;;;;;5088764;28;20192;-73
2024/04/02 01:42:12;;;;;;;3.75;2.67;;;;;;;;;;5082434;28;20214;-72
2024/04/02 01:44:38;;;;;;;4.47;2.88;;;;;;;;;;5077497;28;20673;-73
2024/04/02 01:47:03;;;;;;;11.60;2.88;;;;;;;;;;5080544;28;20192;-72
2024/04/02 01:49:29;;;;;;;6.63;2.90;;;;;;;;;;5087659;28;20207;-73
2024/04/02 01:51:54;;;;;;;6.43;2.90;;;;;;;;;;5091232;28;20191;-73
2024/04/02 01:54:20;;;;;;;6.35;2.80;;;;;;;;;;5094304;28;20599;-72
2024/04/02 01:56:45;;;;;;;5.28;2.95;;;;;;;;;;5089859;28;20267;-72
2024/04/02 01:59:10;;;;;;;7.15;3.33;;;;;;;;;;5087481;28;20193;-72
2024/04/02 02:01:36;;;;;;;8.40;2.78;;;;;;;;;;5090302;28;20206;-72
2024/04/02 02:04:01;;;;;;;6.45;2.63;;;;;;;;;;5094664;28;20678;-72
2024/04/02 02:06:27;;;;;;;5.80;2.40;;;;;;;;;;5070986;28;20180;-72
2024/04/02 02:08:52;;;;;;;7.40;2.40;;;;;;;;;;5083097;28;20188;-72
2024/04/02 02:11:18;;;;;;;6.28;2.67;;;;;;;;;;5081625;28;20590;-73
2024/04/02 02:13:43;;;;;;;4.72;2.33;;;;;;;;;;5093244;28;20237;-72
2024/04/02 02:16:08;;;;;;;3.28;2.20;;;;;;;;;;5082655;28;20245;-73
2024/04/02 02:18:34;;;;;;;6.15;2.40;;;;;;;;;;5091580;28;20301;-72
2024/04/02 02:20:59;;;;;;;3.75;2.50;;;;;;;;;;5090130;28;20245;-72
2024/04/02 02:23:26;;;;;;;4.03;2.85;;;;;;;;;;5091028;28;20713;-72
2024/04/02 02:25:52;;;;;;;5.75;2.60;;;;;;;;;;5093958;28;20245;-73
2024/04/02 02:28:18;;;;;;;6.70;3.17;;;;;;;;;;5087632;28;20559;-72
2024/04/02 02:30:44;;;;;;;3.70;2.28;;;;;;;;;;5093746;28;20195;-73
2024/04/02 02:33:09;;;;;;;3.83;2.50;;;;;;;;;;5091759;28;20188;-73
2024/04/02 02:35:35;;;;;;;4.30;2.42;;;;;;;;;;5082360;28;20201;-73
2024/04/02 02:38:00;;;;;;;3.42;2.17;;;;;;;;;;5091768;28;20232;-72
2024/04/02 02:40:28;;;;;;;4.68;2.40;;;;;;;;;;5083428;28;20189;-72
2024/04/02 02:42:53;;;;;;;6.93;2.67;;;;;;;;;;5103497;28;20210;-72
2024/04/02 02:45:19;;;;;;;6.13;2.55;;;;;;;;;;5093636;28;20192;-72
2024/04/02 02:47:44;;;;;;;6.78;2.58;;;;;;;;;;5090721;28;20187;-71
2024/04/02 02:50:09;;;;;;;5.45;2.20;;;;;;;;;;5092728;28;20192;-72
2024/04/02 02:52:36;;;;;;;3.70;2.20;;;;;;;;;;5093304;28;20337;-72
2024/04/02 02:55:02;;;;;;;2.92;2.58;;;;;;;;;;5093612;28;20208;-72
2024/04/02 02:57:28;;;;;;;3.28;2.42;;;;;;;;;;5088680;28;20199;-72
2024/04/02 02:59:54;;;;;;;5.03;2.60;;;;;;;;;;5089000;28;20188;-73
2024/04/02 03:02:20;;;;;;;6.32;3.10;;;;;;;;;;5080283;28;20372;-72
2024/04/02 03:04:48;;;;;;;6.45;2.53;;;;;;;;;;5077944;28;20196;-71
2024/04/02 03:07:14;;;;;;;6.88;2.65;;;;;;;;;;5085822;28;20192;-72
2024/04/02 03:09:41;;;;;;;6.30;2.35;;;;;;;;;;5085725;28;20187;-71
2024/04/02 03:12:08;;;;;;;6.68;2.42;;;;;;;;;;5077974;28;20200;-72
2024/04/02 03:14:33;;;;;;;4.75;2.20;;;;;;;;;;5076060;28;20278;-72
2024/04/02 03:16:58;;;;;;;5.25;2.67;;;;;;;;;;5060928;28;20557;-72
2024/04/02 03:19:24;;;;;;;3.45;2.40;;;;;;;;;;5076380;28;20207;-72
2024/04/02 03:21:49;;;;;;;5.50;2.35;;;;;;;;;;5096725;28;20206;-72
2024/04/02 03:24:15;;;;;;;5.10;2.60;;;;;;;;;;5085338;28;20250;-72
2024/04/02 03:26:40;;;;;;;4.43;2.55;;;;;;;;;;5074005;28;20195;-72
2024/04/02 03:29:06;;;;;;;4.40;2.17;;;;;;;;;;5090377;28;20191;-72
2024/04/02 03:31:31;;;;;;;3.03;2.72;;;;;;;;;;5075728;28;20187;-71
2024/04/02 03:33:57;;;;;;;4.20;2.65;;;;;;;;;;5087866;28;20284;-72
2024/04/02 03:36:22;;;;;;;4.95;2.13;;;;;;;;;;5076941;28;20256;-71
2024/04/02 03:38:48;;;;;;;5.47;2.90;;;;;;;;;;5100216;28;20665;-71
2024/04/02 03:41:14;;;;;;;4.05;2.85;;;;;;;;;;5081644;28;20176;-72
2024/04/02 03:43:42;;;;;;;6.63;2.70;;;;;;;;;;5077412;28;20687;-71
2024/04/02 03:46:08;;;;;;;6.68;2.72;;;;;;;;;;5086547;28;20196;-72
2024/04/02 03:48:34;;;;;;;4.85;2.35;;;;;;;;;;5085294;28;20233;-72
2024/04/02 03:51:00;;;;;;;6.38;2.42;;;;;;;;;;5087173;28;20180;-72
2024/04/02 03:53:26;;;;;;;3.95;2.25;;;;;;;;;;5090403;28;20188;-72
2024/04/02 03:55:59;;;;;;;5.10;2.25;;;;;;;;;;5089262;28;20239;-71
2024/04/02 03:58:25;;;;;;;3.75;2.40;;;;;;;;;;5087636;28;20195;-72
2024/04/02 04:00:51;;;;;;;4.13;2.70;;;;;;;;;;5084329;28;20235;-72
2024/04/02 04:03:17;;;;;;;4.78;2.53;;;;;;;;;;5089159;28;20208;-72
2024/04/02 04:05:43;;;;;;;6.38;2.60;;;;;;;;;;5087045;28;20199;-72
2024/04/02 04:08:09;;;;;;;7.05;2.85;;;;;;;;;;5081902;28;20233;-71
2024/04/02 04:10:35;;;;;;;3.80;2.33;;;;;;;;;;5087641;28;20191;-71
2024/04/02 04:13:01;;;;;;;5.70;2.50;;;;;;;;;;5075046;28;20177;-71
2024/04/02 04:15:26;;;;;;;7.18;2.50;;;;;;;;;;5087369;28;20207;-72
2024/04/02 04:17:52;;;;;;;4.68;2.70;;;;;;;;;;5085948;28;20214;-72
2024/04/02 04:20:17;;;;;;;4.53;2.50;;;;;;;;;;5080498;28;20250;-72
2024/04/02 04:22:42;;;;;;;3.85;2.72;;;;;;;;;;5077626;28;20285;-72
2024/04/02 04:25:08;;;;;;;7.35;2.83;;;;;;;;;;5080642;28;20252;-71
2024/04/02 04:27:37;;;;;;;4.78;3.00;;;;;;;;;;5086505;28;20188;-72
2024/04/02 04:30:04;;;;;;;3.83;2.42;;;;;;;;;;5075651;28;20263;-72
2024/04/02 04:32:30;;;;;;;4.50;2.67;;;;;;;;;;5090569;28;20564;-71
2024/04/02 04:34:55;;;;;;;7.75;3.05;;;;;;;;;;5079920;28;20199;-71
2024/04/02 04:37:20;;;;;;;5.47;2.45;;;;;;;;;;5079544;28;20690;-72
2024/04/02 04:39:46;;;;;;;6.40;2.80;;;;;;;;;;5078870;28;20261;-72
2024/04/02 04:42:11;;;;;;;6.38;2.67;;;;;;;;;;5069094;28;20540;-72
2024/04/02 04:44:37;;;;;;;6.70;2.75;;;;;;;;;;5088561;28;20208;-72
2024/04/02 04:47:02;;;;;;;5.57;2.70;;;;;;;;;;5081833;28;20209;-71
2024/04/02 04:49:28;;;;;;;5.25;2.75;;;;;;;;;;5086653;28;20245;-72
2024/04/02 04:51:53;;;;;;;8.13;3.05;;;;;;;;;;5076792;28;20193;-71
2024/04/02 04:54:19;;;;;;;4.88;2.53;;;;;;;;;;5077354;28;20208;-71
2024/04/02 04:56:44;;;;;;;8.15;2.80;;;;;;;;;;5082301;28;20216;-71
2024/04/02 04:59:09;;;;;;;5.95;2.70;;;;;;;;;;5087108;28;20188;-71
2024/04/02 05:01:35;;;;;;;2.88;2.47;;;;;;;;;;5076854;28;20223;-71
2024/04/02 05:04:00;;;;;;;10.82;2.88;;;;;;;;;;5074672;28;20244;-72
2024/04/02 05:06:26;;;;;;;4.65;3.15;;;;;;;;;;5086420;28;20671;-71
2024/04/02 05:08:51;;;;;;;6.28;3.33;;;;;;;;;;5086406;28;20901;-71
2024/04/02 05:11:16;;;;;;;6.78;2.55;;;;;;;;;;5080448;28;20274;-71
2024/04/02 05:13:42;;;;;;;4.82;2.75;;;;;;;;;;5081554;28;20207;-72
2024/04/02 05:16:07;;;;;;;8.63;3.00;;;;;;;;;;5082271;28;20195;-71
2024/04/02 05:18:33;;;;;;;7.43;3.30;;;;;;;;;;5075178;28;20299;-71
2024/04/02 05:20:59;;;;;;;5.85;2.60;;;;;;;;;;5081983;28;20195;-71
2024/04/02 05:23:26;;;;;;;6.70;2.70;;;;;;;;;;5081972;28;20272;-71
2024/04/02 05:25:57;;;;;;;6.60;2.90;;;;;;;;;;5082004;28;20268;-71
2024/04/02 05:28:23;;;;;;;5.90;2.92;;;;;;;;;;5080863;28;20198;-71
2024/04/02 05:30:48;;;;;;;7.53;2.77;;;;;;;;;;5074883;28;20184;-72
2024/04/02 05:33:13;;;;;;;7.83;2.70;;;;;;;;;;5077104;28;20184;-72
2024/04/02 05:35:39;;;;;;;6.57;2.87;;;;;;;;;;5084658;28;20196;-72
2024/04/02 05:38:06;;;;;;;5.25;2.60;;;;;;;;;;5062377;28;20259;-71
2024/04/02 05:40:32;;;;;;;4.22;2.30;;;;;;;;;;5085738;28;20211;-71
2024/04/02 05:42:58;;;;;;;6.07;3.00;;;;;;;;;;5083829;28;20240;-71
2024/04/02 05:45:24;;;;;;;6.85;2.85;;;;;;;;;;5084460;28;20352;-72
2024/04/02 05:47:49;;;;;;;5.43;2.40;;;;;;;;;;5075154;28;20215;-71
2024/04/02 05:50:15;;;;;;;8.35;2.90;;;;;;;;;;5086140;28;20195;-72
2024/04/02 05:52:41;;;;;;;5.95;2.60;;;;;;;;;;5085414;28;20212;-72
2024/04/02 05:55:06;;;;;;;4.63;2.60;;;;;;;;;;5082860;28;20207;-72
2024/04/02 05:57:32;;;;;;;6.82;2.72;;;;;;;;;;5079716;28;20199;-72
2024/04/02 05:59:57;;;;;;;4.85;3.00;;;;;;;;;;5074713;28;20188;-72
2024/04/02 06:02:23;;;;;;;9.43;2.90;;;;;;;;;;5085652;28;20183;-72
2024/04/02 06:04:48;;;;;;;8.77;2.70;;;;;;;;;;5079048;28;20267;-72
2024/04/02 06:07:14;;;;;;;5.53;3.03;;;;;;;;;;5077009;28;20262;-73
2024/04/02 06:09:40;;;;;;;5.80;2.92;;;;;;;;;;5078855;28;20181;-73
2024/04/02 06:12:06;;;;;;;4.13;2.60;;;;;;;;;;5083680;28;20590;-73
2024/04/02 06:14:32;;;;;;;8.50;2.90;;;;;;;;;;5073542;28;20237;-72
2024/04/02 06:16:58;;;;;;;6.38;2.80;;;;;;;;;;5074512;28;20188;-73
2024/04/02 06:19:23;;;;;;;5.43;2.60;;;;;;;;;;5082651;28;20256;-72
2024/04/02 06:21:49;;;;;;;5.53;2.20;;;;;;;;;;5085272;28;20297;-72
2024/04/02 06:24:14;;;;;;;7.47;2.60;;;;;;;;;;5073623;28;20213;-72
2024/04/02 06:26:40;;;;;;;10.15;2.97;;;;;;;;;;5084197;28;20515;-72
2024/04/02 06:29:06;;;;;;;6.10;2.70;;;;;;;;;;5081214;28;20202;-72
2024/04/02 06:31:31;;;;;;;5.88;2.63;;;;;;;;;;5082243;28;20195;-73
2024/04/02 06:33:56;;;;;;;9.35;3.05;;;;;;;;;;5081361;28;20192;-71
2024/04/02 06:36:26;;;;;;;5.18;2.25;;;;;;;;;;5087154;28;20196;-72
2024/04/02 06:38:51;;;;;;;6.13;2.10;;;;;;;;;;5073492;28;20232;-72
2024/04/02 06:41:16;;;;;;;4.80;2.47;;;;;;;;;;5087090;28;20261;-71
2024/04/02 06:43:42;;;;;;;9.63;2.92;;;;;;;;;;5090802;28;20262;-71
2024/04/02 06:46:08;;;;;;;5.55;2.30;;;;;;;;;;5086607;28;20196;-71
2024/04/02 06:48:33;;;;;;;7.22;2.25;;;;;;;;;;5078256;28;20249;-71
2024/04/02 06:51:06;;;;;;;8.38;2.67;;;;;;;;;;5086299;28;20280;-72
2024/04/02 06:53:32;;;;;;;7.88;3.00;;;;;;;;;;5082398;28;20189;-71
2024/04/02 06:55:58;;;;;;;8.43;2.55;;;;;;;;;;5069602;28;20585;-72
2024/04/02 06:58:24;;;;;;;5.95;2.28;;;;;;;;;;5088400;28;20203;-71
2024/04/02 07:00:50;;;;;;;6.20;2.60;;;;;;;;;;5090880;28;20183;-70
2024/04/02 07:03:20;;;;;;;5.55;2.28;;;;;;;;;;5077519;28;20538;-71
2024/04/02 07:05:47;;;;;;;6.72;2.35;;;;;;;;;;5068614;28;20218;-71
2024/04/02 07:08:13;;;;;;;4.55;2.28;;;;;;;;;;5082049;28;20188;-71
2024/04/02 07:10:44;;;;;;;5.45;2.28;;;;;;;;;;5074096;28;20659;-72
2024/04/02 07:13:10;;;;;;;8.32;2.60;;;;;;;;;;5079840;28;20207;-72
2024/04/02 07:15:36;;;;;;;7.63;2.60;;;;;;;;;;5077139;28;20189;-72
2024/04/02 07:18:02;;;;;;;8.10;2.65;;;;;;;;;;5083468;28;20193;-72
2024/04/02 07:20:27;;;;;;;5.40;2.30;;;;;;;;;;5075392;28;20210;-72
2024/04/02 07:22:53;;;;;;;4.10;1.90;;;;;;;;;;5086375;28;20220;-71
2024/04/02 07:25:18;;;;;;;3.38;2.33;;;;;;;;;;5068698;28;20540;-71
2024/04/02 07:27:46;;;;;;;4.03;2.08;;;;;;;;;;5078592;28;20191;-72
2024/04/02 07:30:12;;;;;;;9.05;2.28;;;;;;;;;;5081928;28;20220;-71
2024/04/02 07:32:38;;;;;;;6.65;2.22;;;;;;;;;;5084717;28;20192;-71
2024/04/02 07:35:04;;;;;;;8.05;2.03;;;;;;;;;;5083691;28;20194;-72
2024/04/02 07:37:30;;;;;;;6.70;1.98;;;;;;;;;;5090155;28;20240;-72
2024/04/02 07:39:55;;;;;;;4.97;2.00;;;;;;;;;;5085335;28;20184;-70
2024/04/02 07:42:20;;;;;;;7.03;2.40;;;;;;;;;;5074783;28;20608;-71
2024/04/02 07:44:46;;;;;;;5.72;2.70;;;;;;;;;;5084242;28;20628;-71
2024/04/02 07:47:12;;;;;;;8.15;2.10;;;;;;;;;;5079722;28;20203;-70
2024/04/02 07:49:37;;;;;;;6.45;2.55;;;;;;;;;;5087004;28;20663;-72
2024/04/02 07:52:03;;;;;;;7.53;2.88;;;;;;;;;;5080359;28;20188;-70
2024/04/02 07:54:28;;;;;;;6.85;3.45;;;;;;;;;;5077587;28;20686;-71
2024/04/02 07:56:54;;;;;;;7.32;2.97;;;;;;;;;;5081277;28;20321;-71
2024/04/02 07:59:23;;;;;;;6.68;2.95;;;;;;;;;;5078929;28;20189;-71
2024/04/02 08:01:48;;;;;;;5.35;2.90;;;;;;;;;;5069538;28;20212;-71
2024/04/02 08:04:14;;;;;;;9.35;3.70;;;;;;;;;;5073488;28;20250;-71
2024/04/02 08:06:42;;;;;;;9.75;3.67;;;;;;;;;;5068673;28;20246;-71
2024/04/02 08:09:07;;;;;;;8.75;3.35;;;;;;;;;;5089529;28;21750;-72
2024/04/02 08:11:33;;;;;;;10.60;4.13;;;;;;;;;;5095229;28;20261;-72
2024/04/02 08:13:58;;;;;;;12.30;3.80;;;;;;;;;;5082410;28;20229;-72
2024/04/02 08:16:24;;;;;;;8.05;4.15;;;;;;;;;;5084964;28;20237;-71
2024/04/02 08:18:49;;;;;;;9.02;4.20;;;;;;;;;;5084279;28;20208;-71
2024/04/02 08:21:15;;;;;;;6.65;3.80;;;;;;;;;;5075999;28;20181;-70
2024/04/02 08:23:40;;;;;;;11.55;3.97;;;;;;;;;;5069940;28;20365;-70
2024/04/02 08:26:06;;;;;;;9.00;4.32;;;;;;;;;;5083907;28;20183;-72
2024/04/02 08:28:32;;;;;;;8.45;4.35;;;;;;;;;;5071447;28;20597;-70
2024/04/02 08:30:58;;;;;;;8.95;4.00;;;;;;;;;;5073364;28;20193;-71
2024/04/02 08:33:25;;;;;;;10.65;4.28;;;;;;;;;;5083638;28;20191;-71
2024/04/02 08:35:51;;;;;;;8.13;4.50;;;;;;;;;;5079386;28;20280;-72
2024/04/02 08:38:17;;;;;;;11.70;4.57;;;;;;;;;;5075150;28;20231;-71
2024/04/02 08:40:57;;;;;;;10.50;4.40;;;;;;;;;;5071401;28;20242;-71
2024/04/02 08:43:22;;;;;;;10.38;3.90;;;;;;;;;;5079301;28;20193;-71
2024/04/02 08:45:48;;;;;;;8.63;3.97;;;;;;;;;;5078946;28;20196;-71
2024/04/02 08:48:17;;;;;;;9.98;3.88;;;;;;;;;;5083536;28;20236;-71
2024/04/02 08:50:42;;;;;;;10.40;3.92;;;;;;;;;;5096541;28;20543;-72
2024/04/02 08:53:08;;;;;;;9.45;3.88;;;;;;;;;;5077732;28;20184;-71
2024/04/02 08:55:39;;;;;;;15.93;4.30;;;;;;;;;;5086475;28;20229;-71
2024/04/02 08:58:05;;;;;;;12.50;4.00;;;;;;;;;;5085537;28;20681;-71
2024/04/02 09:00:31;;;;;;;10.82;4.15;;;;;;;;;;5068613;28;20711;-71
2024/04/02 09:02:57;;;;;;;10.55;3.92;;;;;;;;;;5084343;28;20284;-72
2024/04/02 09:05:23;;;;;;;13.90;4.00;;;;;;;;;;5079011;28;20188;-72
2024/04/02 09:07:49;;;;;;;15.13;4.28;;;;;;;;;;5071986;28;20544;-72
2024/04/02 09:10:14;;;;;;;7.40;3.53;;;;;;;;;;5085270;28;20233;-72
2024/04/02 09:12:40;;;;;;;12.48;4.40;;;;;;;;;;5085239;28;20295;-72
2024/04/02 09:15:07;;;;;;;12.30;4.28;;;;;;;;;;5077937;28;20179;-72
2024/04/02 09:17:35;;;;;;;12.77;4.32;;;;;;;;;;5080547;28;20196;-72
2024/04/02 09:20:02;;;;;;;16.48;4.55;;;;;;;;;;5090018;28;20208;-71
2024/04/02 09:22:27;;;;;;;11.48;3.90;;;;;;;;;;5075887;28;20187;-72
2024/04/02 09:24:53;;;;;;;14.55;3.90;;;;;;;;;;5080333;28;20208;-71
2024/04/02 09:27:20;;;;;;;10.77;3.65;;;;;;;;;;5075294;28;20192;-72
2024/04/02 09:29:45;;;;;;;8.77;3.72;;;;;;;;;;5114280;27;20193;-72
2024/04/02 09:32:14;;;;;;;12.85;4.10;;;;;;;;;;5091792;28;20187;-71
2024/04/02 09:34:41;;;;;;;14.63;3.70;;;;;;;;;;5080962;28;20312;-71
2024/04/02 09:37:17;;;;;;;15.48;4.05;;;;;;;;;;5088449;28;20483;-71
2024/04/02 09:39:45;;;;;;;10.48;3.28;;;;;;;;;;5073805;28;20598;-71
2024/04/02 09:42:12;;;;;;;12.77;3.83;;;;;;;;;;5081618;28;20191;-71
2024/04/02 09:44:39;;;;;;;10.13;3.33;;;;;;;;;;5081692;28;20732;-71
2024/04/02 09:47:06;;;;;;;11.25;3.15;;;;;;;;;;5082049;28;20280;-72
2024/04/02 09:49:33;;;;;;;10.77;3.70;;;;;;;;;;5081566;28;20196;-71
2024/04/02 09:52:02;;;;;;;10.50;2.75;;;;;;;;;;5081259;28;20195;-71
2024/04/02 09:54:30;;;;;;;13.30;3.13;;;;;;;;;;5072312;28;20678;-72
2024/04/02 09:56:59;;;;;;;8.43;3.05;;;;;;;;;;5069571;28;20192;-72
2024/04/02 09:59:25;;;;;;;8.90;2.60;;;;;;;;;;5079901;28;20226;-71
2024/04/02 10:01:51;;;;;;;9.48;3.15;;;;;;;;;;5083870;28;20188;-71
2024/04/02 10:04:20;;;;;;;10.65;2.67;;;;;;;;;;5079663;28;20239;-71
2024/04/02 10:06:46;;;;;;;19.30;3.67;;;;;;;;;;5078908;28;20196;-71
2024/04/02 10:09:12;;;;;;;10.23;2.97;;;;;;;;;;5081371;28;20188;-71
2024/04/02 10:11:39;;;;;;;9.88;3.03;;;;;;;;;;5086630;28;20548;-71
2024/04/02 10:14:09;;;;;;;9.20;2.88;;;;;;;;;;5090805;28;20635;-72
2024/04/02 10:16:38;;;;;;;9.30;3.00;;;;;;;;;;5080313;28;20567;-71
2024/04/02 10:19:04;;;;;;;10.32;2.75;;;;;;;;;;5089919;28;20644;-73
2024/04/02 10:21:33;;;;;;;15.00;3.00;;;;;;;;;;5085892;28;20276;-72
2024/04/02 10:23:59;;;;;;;15.38;3.28;;;;;;;;;;5083721;28;20724;-72
2024/04/02 10:26:30;;;;;;;11.63;3.05;;;;;;;;;;5090342;28;20499;-72
2024/04/02 10:28:55;;;;;;;13.15;3.03;;;;;;;;;;5088349;28;20196;-72
2024/04/02 10:31:21;;;;;;;9.90;2.97;;;;;;;;;;5083253;28;20188;-72
2024/04/02 10:33:52;;;;;;;9.73;2.92;;;;;;;;;;5088279;28;20545;-71
2024/04/02 10:36:18;;;;;;;5.13;2.05;;;;;;;;;;5072456;28;20192;-71
2024/04/02 10:38:44;;;;;;;10.00;3.35;;;;;;;;;;5058573;28;20223;-72
2024/04/02 10:41:10;;;;;;;10.18;2.30;;;;;;;;;;5083744;28;20196;-71
2024/04/02 10:43:35;;;;;;;14.13;2.95;;;;;;;;;;5088443;28;20214;-71
2024/04/02 10:46:01;;;;;;;10.05;2.28;;;;;;;;;;5086475;28;20180;-72
2024/04/02 10:48:26;;;;;;;11.60;2.60;;;;;;;;;;5087208;28;20191;-73
2024/04/02 10:50:52;;;;;;;11.63;2.92;;;;;;;;;;5085338;28;20211;-72
2024/04/02 10:53:17;;;;;;;9.95;2.63;;;;;;;;;;5076568;28;20259;-72
2024/04/02 10:55:42;;;;;;;9.40;2.17;;;;;;;;;;5085343;28;20192;-72
2024/04/02 10:58:10;;;;;;;13.18;2.85;;;;;;;;;;5083106;28;20214;-74
2024/04/02 11:00:35;;;;;;;11.57;2.95;;;;;;;;;;5076651;28;20187;-74
2024/04/02 11:03:02;;;;;;;10.35;1.92;;;;;;;;;;5084403;28;20203;-73
2024/04/02 11:05:27;;;;;;;13.60;2.25;;;;;;;;;;5081992;28;20235;-72
2024/04/02 11:07:53;;;;;;;11.10;2.42;;;;;;;;;;5078515;28;20188;-73
2024/04/02 11:10:18;;;;;;;11.18;2.22;;;;;;;;;;5088897;28;21248;-72
2024/04/02 11:12:44;;;;;;;10.65;1.92;;;;;;;;;;5088462;28;20224;-73
2024/04/02 11:15:11;;;;;;;11.13;2.20;;;;;;;;;;5090131;28;20188;-72
2024/04/02 11:17:37;;;;;;;7.15;1.92;;;;;;;;;;5087658;28;20252;-73
2024/04/02 11:20:09;;;;;;;12.73;1.80;;;;;;;;;;5068325;28;20560;-72
2024/04/02 11:25:20;;;;;;;8.52;2.25;;;;;;;;;;5081090;28;20204;-72
2024/04/02 11:27:45;;;;;;;13.77;2.30;;;;;;;;;;5089160;28;20318;-72
2024/04/02 11:30:17;;;;;;;6.60;1.98;;;;;;;;;;5085933;28;20180;-72
2024/04/02 11:32:42;;;;;;;7.22;1.83;;;;;;;;;;5083584;28;20682;-73
2024/04/02 11:35:16;;;;;;;9.30;1.83;;;;;;;;;;5090858;28;20184;-72
2024/04/02 11:37:43;;;;;;;14.63;2.80;;;;;;;;;;5087021;28;20310;-73
2024/04/02 11:40:18;;;;;;;10.07;2.28;;;;;;;;;;5075064;28;20193;-72
2024/04/02 11:42:44;;;;;;;7.65;1.98;;;;;;;;;;5112565;27;20626;-72
2024/04/02 11:45:10;;;;;;;12.45;2.30;;;;;;;;;;5072123;28;20559;-71
2024/04/02 11:47:36;;;;;;;8.85;1.90;;;;;;;;;;5073877;28;20184;-73
2024/04/02 11:50:02;;;;;;;12.35;2.25;;;;;;;;;;5069171;28;20185;-73
2024/04/02 11:52:29;;;;;;;7.10;1.67;;;;;;;;;;5069181;28;20177;-72
2024/04/02 11:54:55;;;;;;;9.35;1.73;;;;;;;;;;5082400;28;20208;-71
2024/04/02 12:00:11;;;;;;;9.13;1.90;;;;;;;;;;5070397;28;20597;-72
2024/04/02 12:02:46;;;;;;;8.48;1.83;;;;;;;;;;5070203;28;20185;-71
2024/04/02 12:05:12;;;;;;;6.93;1.83;;;;;;;;;;5068572;28;20303;-72
2024/04/02 12:07:38;;;;;;;13.30;2.83;;;;;;;;;;5074210;28;20199;-72
2024/04/02 12:10:06;;;;;;;4.47;1.80;;;;;;;;;;5080187;28;20212;-72
2024/04/02 12:12:32;;;;;;;3.65;1.20;;;;;;;;;;5086488;28;20962;-72
2024/04/02 12:15:01;;;;;;;4.13;1.13;;;;;;;;;;5080077;28;20204;-71
2024/04/02 12:17:26;;;;;;;6.60;1.05;;;;;;;;;;5110202;27;20195;-71
2024/04/02 12:19:55;;;;;;;5.25;1.58;;;;;;;;;;5069530;28;20209;-72
2024/04/02 12:22:21;;;;;;;2.50;0.80;;;;;;;;;;5081294;28;20284;-72
2024/04/02 12:24:47;;;;;;;3.83;0.90;;;;;;;;;;5077106;28;20688;-73
2024/04/02 12:27:12;;;;;;;4.18;0.90;;;;;;;;;;5073289;28;20206;-72
2024/04/02 12:29:39;;;;;;;2.53;0.85;;;;;;;;;;5084797;28;20181;-72
2024/04/02 12:32:07;;;;;;;2.95;0.75;;;;;;;;;;5078865;28;20562;-71
2024/04/02 12:34:32;;;;;;;4.78;1.10;;;;;;;;;;5088030;28;20655;-71
2024/04/02 12:36:59;;;;;;;4.38;1.13;;;;;;;;;;5077416;28;20207;-72
2024/04/02 12:39:25;;;;;;;3.35;1.08;;;;;;;;;;5082999;28;20232;-72
2024/04/02 12:41:50;;;;;;;3.33;1.00;;;;;;;;;;5079687;28;20184;-72
2024/04/02 12:44:16;;;;;;;3.15;1.05;;;;;;;;;;5088825;28;20212;-70
2024/04/02 12:46:42;;;;;;;3.70;1.00;;;;;;;;;;5087807;28;20245;-72
2024/04/02 12:49:09;;;;;;;1.38;0.82;;;;;;;;;;5085806;28;20230;-72
2024/04/02 12:51:35;;;;;;;3.22;1.00;;;;;;;;;;5087673;28;20223;-72
2024/04/02 12:54:02;;;;;;;7.07;1.48;;;;;;;;;;5089306;28;20200;-72
2024/04/02 12:56:27;;;;;;;2.50;1.13;;;;;;;;;;5088783;28;20184;-71
2024/04/02 12:58:54;;;;;;;3.20;1.10;;;;;;;;;;5088099;28;20672;-71
2024/04/02 13:01:20;;;;;;;3.47;1.25;;;;;;;;;;5074512;28;20622;-72
2024/04/02 13:03:46;;;;;;;3.38;1.05;;;;;;;;;;5089092;28;20290;-72
2024/04/02 13:06:12;;;;;;;4.55;1.13;;;;;;;;;;5081651;28;20714;-70
2024/04/02 13:08:41;;;;;;;2.42;0.98;;;;;;;;;;5080594;28;20184;-72
2024/04/02 13:11:10;;;;;;;2.65;0.90;;;;;;;;;;5071789;28;20187;-72
2024/04/02 13:13:35;;;;;;;1.60;0.82;;;;;;;;;;5086269;28;20603;-73
2024/04/02 13:16:32;;;;;;;3.78;0.80;;;;;;;;;;5072011;28;20271;-72
2024/04/02 13:19:06;;;;;;;2.53;0.80;;;;;;;;;;5081172;28;20224;-72
2024/04/02 13:21:35;;;;;;;3.80;0.80;;;;;;;;;;5081985;28;20184;-72
2024/04/02 13:24:02;;;;;;;1.35;0.80;;;;;;;;;;5080832;28;20283;-71
2024/04/02 13:26:29;;;;;;;2.92;0.82;;;;;;;;;;5081424;28;20180;-71
2024/04/02 13:28:58;;;;;;;3.17;0.85;;;;;;;;;;5085610;28;20196;-72
2024/04/02 13:31:24;;;;;;;1.98;0.60;;;;;;;;;;5070938;28;20645;-72
2024/04/02 13:33:51;;;;;;;2.80;0.55;;;;;;;;;;5074447;28;20653;-72
2024/04/02 13:36:17;;;;;;;1.55;0.60;;;;;;;;;;5076702;28;20184;-72
2024/04/02 13:38:45;;;;;;;2.92;0.75;;;;;;;;;;5061008;28;20521;-72
2024/04/02 13:41:11;;;;;;;2.80;1.30;;;;;;;;;;5071833;28;20196;-71
2024/04/02 13:43:37;;;;;;;5.40;1.55;;;;;;;;;;5072610;28;20265;-72
2024/04/02 13:46:04;;;;;;;3.00;1.35;;;;;;;;;;5076898;28;20188;-72
2024/04/02 13:48:31;;;;;;;3.33;1.40;;;;;;;;;;5080051;28;20318;-72
2024/04/02 13:51:08;;;;;;;4.78;1.50;;;;;;;;;;5088501;28;20302;-72
2024/04/02 13:53:35;;;;;;;3.88;1.50;;;;;;;;;;5069244;28;20496;-72
2024/04/02 13:56:02;;;;;;;3.17;1.33;;;;;;;;;;5066544;28;20739;-72
2024/04/02 13:58:28;;;;;;;6.05;1.60;;;;;;;;;;5069042;28;20188;-72
2024/04/02 14:00:54;;;;;;;2.92;1.50;;;;;;;;;;5076669;28;20189;-73
2024/04/02 14:03:20;;;;;;;3.47;1.30;;;;;;;;;;5081468;28;20200;-70
2024/04/02 14:05:48;;;;;;;4.05;1.33;;;;;;;;;;5068584;28;20290;-70
2024/04/02 14:08:14;;;;;;;4.38;1.52;;;;;;;;;;5076380;28;20199;-71
2024/04/02 14:10:39;;;;;;;5.35;1.60;;;;;;;;;;5084093;28;20192;-71
2024/04/02 14:13:07;;;;;;;2.47;1.30;;;;;;;;;;5081912;28;20635;-72
2024/04/02 14:15:38;;;;;;;4.47;1.25;;;;;;;;;;5067779;28;20219;-71
2024/04/02 14:18:04;;;;;;;3.53;1.60;;;;;;;;;;5085478;28;20362;-72
2024/04/02 14:20:30;;;;;;;3.97;1.40;;;;;;;;;;5065898;28;20742;-71
2024/04/02 14:22:56;;;;;;;7.22;1.55;;;;;;;;;;5067713;28;20252;-71
2024/04/02 14:25:21;;;;;;;3.90;1.77;;;;;;;;;;5082441;28;20271;-71
2024/04/02 14:27:47;;;;;;;7.55;1.75;;;;;;;;;;5081296;28;20662;-71
2024/04/02 14:30:13;;;;;;;4.18;1.75;;;;;;;;;;5076273;28;20184;-71
2024/04/02 14:32:39;;;;;;;3.17;1.75;;;;;;;;;;5077596;28;20266;-71
2024/04/02 14:35:05;;;;;;;6.18;1.67;;;;;;;;;;5076949;28;20189;-71
2024/04/02 14:37:30;;;;;;;8.27;1.83;;;;;;;;;;5076264;28;20236;-71
2024/04/02 14:39:56;;;;;;;9.57;2.20;;;;;;;;;;5081135;28;20707;-72